Amiret, Minnesota
Current Conditions -  °F | °C
As of 2:33 PM on Thursday 27 Nov 2014 (Local Time) from KTKC Reporting Station
Clear Clear  
Wind Chill: -2°   Ceiling: Unl
Heat Index: 10°   Visibility: 10mi
Dew Point: -1°   Wind: 8mph
Humidity: 63%   Direction: 150°SSE
Pressure: 30.36"   Gusts: NA
Location:  44.2253°N, 95.6512°W
Report Text: KTKC 272033Z AUTO 15007KT 10SM CLR M12/M18 A3036 RMK AO2 T11241182
Loading
Personal Weather Stations






























Interactive Weather Map New forecast layout! Learn more

10-Day Weather Forecast

Advertisements
Track Severe Weather on mobile